Time;durP1;ratioP1;P1;durP2;ratioP2;P2;SDS_P1;SDS_P2;PMS_P1;PMS_P2;Temp;Humidity;BMP_temperature;BMP_pressure;BME280_temperature;BME280_humidity;BME280_pressure;Samples;Min_cycle;Max_cycle;Signal;HPM_P1;HPM_P2
2023/05/29 00:02:56;;;;;;;9.33;6.40;;;9.60;99.90;;;;;;4663302;29;20374;-84
2023/05/29 00:27:38;;;;;;;17.43;12.53;;;9.20;99.90;;;;;;4654642;29;21266;-81
2023/05/29 01:08:38;;;;;;;12.10;7.87;;;8.90;99.90;;;;;;4576378;30;20251;-82
2023/05/29 01:34:03;;;;;;;13.43;9.57;;;8.60;99.90;;;;;;4422706;31;20227;-82
2023/05/29 01:54:20;;;;;;;10.77;7.70;;;8.40;99.90;;;;;;4495858;30;20650;-83
2023/05/29 02:19:46;;;;;;;11.30;8.17;;;8.00;99.90;;;;;;4615119;30;20217;-83
2023/05/29 03:30:41;;;;;;;17.60;11.83;;;8.80;99.90;;;;;;4556930;30;20232;-81
2023/05/29 03:55:47;;;;;;;15.97;10.57;;;9.90;99.90;;;;;;4643401;29;20971;-81
2023/05/29 04:11:13;;;;;;;12.33;9.67;;;10.70;99.90;;;;;;4658848;29;20363;-83
2023/05/29 04:36:46;;;;;;;16.07;9.93;;;12.20;99.50;;;;;;4676935;29;20238;-84
2023/05/29 04:56:39;;;;;;;12.87;8.77;;;13.70;92.40;;;;;;4588003;29;20895;-83
2023/05/29 05:26:53;;;;;;;14.83;7.60;;;15.50;87.70;;;;;;4522234;30;21223;-86
2023/05/29 05:47:46;;;;;;;6.90;4.10;;;16.70;80.70;;;;;;4593592;30;20539;-83
2023/05/29 06:23:24;;;;;;;9.73;4.73;;;18.50;67.10;;;;;;4781991;29;20213;-84
2023/05/29 06:27:45;;;;;;;8.13;4.40;;;18.80;68.00;;;;;;4725197;29;21282;-86
2023/05/29 06:48:28;;;;;;;7.73;4.30;;;19.70;58.90;;;;;;4716297;29;20666;-84
2023/05/29 07:08:44;;;;;;;4.97;2.40;;;20.40;48.50;;;;;;4633834;29;20322;-83
2023/05/29 07:29:11;;;;;;;6.57;2.40;;;20.60;46.20;;;;;;4577308;30;20394;-83
2023/05/29 08:14:59;;;;;;;6.68;2.08;;;21.50;44.20;;;;;;4625355;30;20341;-85
2023/05/29 08:39:54;;;;;;;4.80;2.13;;;21.00;43.40;;;;;;4721318;29;20601;-84
2023/05/29 09:00:28;;;;;;;3.40;1.70;;;21.60;42.90;;;;;;4624857;30;20552;-86
2023/05/29 09:35:27;;;;;;;2.90;2.20;;;21.60;42.30;;;;;;4674723;29;21122;-84
2023/05/29 10:01:16;;;;;;;4.47;2.10;;;21.90;43.20;;;;;;4667551;29;20218;-84
2023/05/29 10:36:21;;;;;;;4.40;2.53;;;21.40;41.90;;;;;;4621899;29;20742;-85
2023/05/29 10:57:17;;;;;;;4.65;2.40;;;22.00;41.60;;;;;;4727565;29;20229;-85
2023/05/29 11:27:06;;;;;;;3.85;2.40;;;22.30;41.60;;;;;;4703177;29;20305;-83
2023/05/29 11:48:05;;;;;;;3.88;2.58;;;22.50;41.00;;;;;;4595611;30;20228;-84
2023/05/29 12:18:16;;;;;;;2.67;2.38;;;23.50;41.20;;;;;;4678578;30;20819;-85
2023/05/29 12:43:42;;;;;;;3.50;3.00;;;23.60;41.50;;;;;;4607415;30;20252;-81
2023/05/29 13:24:17;;;;;;;5.20;3.17;;;23.00;41.40;;;;;;4829046;29;20235;-87
2023/05/29 13:49:48;;;;;;;3.35;2.78;;;25.50;39.80;;;;;;4751790;29;20367;-84
2023/05/29 14:14:48;;;;;;;4.95;2.35;;;28.60;40.10;;;;;;4715489;30;20573;-83
2023/05/29 14:40:15;;;;;;;3.65;2.20;;;23.70;42.60;;;;;;4678460;30;20775;-88
2023/05/29 15:15:20;;;;;;;3.88;2.35;;;32.70;38.90;;;;;;4727149;29;20909;-83
2023/05/29 15:41:16;;;;;;;5.28;2.53;;;31.20;37.10;;;;;;4751308;29;20199;-82
2023/05/29 16:06:22;;;;;;;2.65;2.22;;;29.70;36.20;;;;;;4821991;29;20902;-83
2023/05/29 16:32:00;;;;;;;3.05;2.75;;;24.10;37.60;;;;;;4750745;29;20323;-85
2023/05/29 17:02:03;;;;;;;5.35;2.58;;;23.30;38.40;;;;;;4739854;29;20602;-87
2023/05/29 18:13:13;;;;;;;7.50;3.90;;;20.90;40.90;;;;;;5013751;28;20225;-88
2023/05/29 18:38:49;;;;;;;7.63;3.70;;;20.60;42.80;;;;;;4958421;28;20512;-85
2023/05/29 19:08:58;;;;;;;6.43;3.63;;;19.70;46.20;;;;;;4842107;29;20218;-82
2023/05/29 19:34:39;;;;;;;8.20;4.10;;;19.10;47.30;;;;;;4969225;28;20217;-82
2023/05/29 19:54:36;;;;;;;6.13;3.80;;;18.70;48.20;;;;;;4822252;29;20203;-82
2023/05/29 20:20:11;;;;;;;6.90;4.23;;;18.20;53.60;;;;;;4762350;29;20256;-85
2023/05/29 20:45:38;;;;;;;4.90;3.80;;;17.80;66.00;;;;;;4889351;28;20303;-82
2023/05/29 21:20:58;;;;;;;8.87;4.87;;;17.40;74.40;;;;;;4883344;29;20279;-87
2023/05/29 21:50:54;;;;;;;7.10;4.53;;;16.90;78.60;;;;;;4931245;28;20559;-84
2023/05/29 22:16:54;;;;;;;5.10;3.50;;;16.50;79.10;;;;;;4929984;28;20200;-84
2023/05/29 22:37:15;;;;;;;7.17;3.70;;;16.40;78.10;;;;;;4866062;29;20792;-83
2023/05/29 22:57:24;;;;;;;4.97;3.37;;;16.20;78.10;;;;;;4815256;29;20764;-82
2023/05/29 23:22:09;;;;;;;6.87;3.47;;;15.80;79.00;;;;;;4761872;29;20659;-83
2023/05/29 23:37:45;;;;;;;5.97;3.63;;;15.70;78.30;;;;;;4651678;30;20261;-86
2023/05/29 23:58:18;;;;;;;3.93;2.60;;;15.40;77.90;;;;;;4702663;30;20211;-83
